sensor_id;sensor_type;location;lat;lon;timestamp;P1;durP1;ratioP1;P2;durP2;ratioP2
3465;SDS011;1747;48.884;9.160;2022-10-04T00:00:59;6.47;;;4.93;;
3465;SDS011;1747;48.884;9.160;2022-10-04T00:03:31;6.80;;;4.75;;
3465;SDS011;1747;48.884;9.160;2022-10-04T00:06:03;8.18;;;5.68;;
3465;SDS011;1747;48.884;9.160;2022-10-04T00:08:34;7.30;;;4.82;;
3465;SDS011;1747;48.884;9.160;2022-10-04T00:11:12;7.50;;;4.80;;
3465;SDS011;1747;48.884;9.160;2022-10-04T00:13:45;8.27;;;4.75;;
3465;SDS011;1747;48.884;9.160;2022-10-04T00:16:23;5.93;;;4.22;;
3465;SDS011;1747;48.884;9.160;2022-10-04T00:19:01;6.03;;;4.65;;
3465;SDS011;1747;48.884;9.160;2022-10-04T00:31:05;8.07;;;4.65;;
3465;SDS011;1747;48.884;9.160;2022-10-04T00:33:49;7.30;;;4.78;;
3465;SDS011;1747;48.884;9.160;2022-10-04T00:36:33;9.60;;;5.18;;
3465;SDS011;1747;48.884;9.160;2022-10-04T00:39:23;7.50;;;4.43;;
3465;SDS011;1747;48.884;9.160;2022-10-04T00:42:01;6.95;;;4.95;;
3465;SDS011;1747;48.884;9.160;2022-10-04T00:44:36;8.35;;;4.70;;
3465;SDS011;1747;48.884;9.160;2022-10-04T00:47:17;9.27;;;4.72;;
3465;SDS011;1747;48.884;9.160;2022-10-04T00:50:09;7.10;;;4.47;;
3465;SDS011;1747;48.884;9.160;2022-10-04T00:52:43;9.38;;;4.68;;
3465;SDS011;1747;48.884;9.160;2022-10-04T00:55:17;10.13;;;4.38;;
3465;SDS011;1747;48.884;9.160;2022-10-04T00:57:50;6.30;;;4.32;;
3465;SDS011;1747;48.884;9.160;2022-10-04T01:00:24;6.15;;;4.68;;
3465;SDS011;1747;48.884;9.160;2022-10-04T01:02:53;6.13;;;4.07;;
3465;SDS011;1747;48.884;9.160;2022-10-04T01:05:24;6.53;;;4.45;;
3465;SDS011;1747;48.884;9.160;2022-10-04T01:07:57;5.10;;;3.92;;
3465;SDS011;1747;48.884;9.160;2022-10-04T01:10:31;6.82;;;4.55;;
3465;SDS011;1747;48.884;9.160;2022-10-04T01:13:03;6.38;;;4.78;;
3465;SDS011;1747;48.884;9.160;2022-10-04T01:15:43;4.63;;;3.63;;
3465;SDS011;1747;48.884;9.160;2022-10-04T01:18:26;5.68;;;3.80;;
3465;SDS011;1747;48.884;9.160;2022-10-04T01:20:56;5.60;;;3.80;;
3465;SDS011;1747;48.884;9.160;2022-10-04T01:23:31;6.25;;;4.00;;
3465;SDS011;1747;48.884;9.160;2022-10-04T01:25:59;6.20;;;3.88;;
3465;SDS011;1747;48.884;9.160;2022-10-04T01:28:26;5.18;;;3.95;;
3465;SDS011;1747;48.884;9.160;2022-10-04T01:30:53;6.47;;;4.40;;
3465;SDS011;1747;48.884;9.160;2022-10-04T01:33:20;5.18;;;4.00;;
3465;SDS011;1747;48.884;9.160;2022-10-04T01:35:47;8.93;;;4.45;;
3465;SDS011;1747;48.884;9.160;2022-10-04T01:38:14;5.90;;;3.63;;
3465;SDS011;1747;48.884;9.160;2022-10-04T01:40:44;5.75;;;3.92;;
3465;SDS011;1747;48.884;9.160;2022-10-04T01:43:16;5.90;;;4.10;;
3465;SDS011;1747;48.884;9.160;2022-10-04T01:45:52;5.47;;;3.90;;
3465;SDS011;1747;48.884;9.160;2022-10-04T01:48:24;5.40;;;4.18;;
3465;SDS011;1747;48.884;9.160;2022-10-04T01:50:57;5.03;;;3.92;;
3465;SDS011;1747;48.884;9.160;2022-10-04T01:53:29;5.43;;;4.20;;
3465;SDS011;1747;48.884;9.160;2022-10-04T01:56:03;6.95;;;4.75;;
3465;SDS011;1747;48.884;9.160;2022-10-04T01:58:38;8.30;;;4.50;;
3465;SDS011;1747;48.884;9.160;2022-10-04T02:01:08;6.93;;;4.65;;
3465;SDS011;1747;48.884;9.160;2022-10-04T02:03:40;8.95;;;4.78;;
3465;SDS011;1747;48.884;9.160;2022-10-04T02:06:10;8.20;;;4.82;;
3465;SDS011;1747;48.884;9.160;2022-10-04T02:08:40;6.80;;;4.50;;
3465;SDS011;1747;48.884;9.160;2022-10-04T02:11:15;8.95;;;4.50;;
3465;SDS011;1747;48.884;9.160;2022-10-04T02:13:44;8.02;;;5.15;;
3465;SDS011;1747;48.884;9.160;2022-10-04T02:16:13;6.90;;;4.70;;
3465;SDS011;1747;48.884;9.160;2022-10-04T02:18:42;6.18;;;4.25;;
3465;SDS011;1747;48.884;9.160;2022-10-04T02:21:10;5.22;;;3.78;;
3465;SDS011;1747;48.884;9.160;2022-10-04T02:23:39;6.70;;;4.00;;
3465;SDS011;1747;48.884;9.160;2022-10-04T02:26:08;7.45;;;4.05;;
3465;SDS011;1747;48.884;9.160;2022-10-04T02:28:37;5.13;;;4.10;;
3465;SDS011;1747;48.884;9.160;2022-10-04T02:31:04;5.40;;;3.80;;
3465;SDS011;1747;48.884;9.160;2022-10-04T02:33:51;5.88;;;3.75;;
3465;SDS011;1747;48.884;9.160;2022-10-04T02:36:22;8.93;;;4.18;;
3465;SDS011;1747;48.884;9.160;2022-10-04T02:38:53;5.45;;;3.65;;
3465;SDS011;1747;48.884;9.160;2022-10-04T02:41:25;5.95;;;4.38;;
3465;SDS011;1747;48.884;9.160;2022-10-04T02:43:58;4.88;;;3.42;;
3465;SDS011;1747;48.884;9.160;2022-10-04T02:46:31;5.03;;;3.35;;
3465;SDS011;1747;48.884;9.160;2022-10-04T02:49:03;4.90;;;3.35;;
3465;SDS011;1747;48.884;9.160;2022-10-04T02:51:37;5.25;;;3.20;;
3465;SDS011;1747;48.884;9.160;2022-10-04T02:54:11;4.97;;;3.40;;
3465;SDS011;1747;48.884;9.160;2022-10-04T02:56:44;4.55;;;3.28;;
3465;SDS011;1747;48.884;9.160;2022-10-04T02:59:18;5.40;;;3.70;;
3465;SDS011;1747;48.884;9.160;2022-10-04T03:01:48;5.65;;;3.53;;
3465;SDS011;1747;48.884;9.160;2022-10-04T03:04:17;5.47;;;3.22;;
3465;SDS011;1747;48.884;9.160;2022-10-04T03:06:47;4.38;;;2.72;;
3465;SDS011;1747;48.884;9.160;2022-10-04T03:09:15;5.70;;;3.67;;
3465;SDS011;1747;48.884;9.160;2022-10-04T03:11:45;4.47;;;3.17;;
3465;SDS011;1747;48.884;9.160;2022-10-04T03:14:14;4.47;;;3.05;;
3465;SDS011;1747;48.884;9.160;2022-10-04T03:16:46;4.32;;;3.17;;
3465;SDS011;1747;48.884;9.160;2022-10-04T03:19:18;4.40;;;3.40;;
3465;SDS011;1747;48.884;9.160;2022-10-04T03:21:48;9.65;;;3.67;;
3465;SDS011;1747;48.884;9.160;2022-10-04T03:24:17;4.47;;;3.33;;
3465;SDS011;1747;48.884;9.160;2022-10-04T03:26:47;6.07;;;3.95;;
3465;SDS011;1747;48.884;9.160;2022-10-04T03:29:17;7.47;;;3.35;;
3465;SDS011;1747;48.884;9.160;2022-10-04T03:31:48;6.63;;;3.55;;
3465;SDS011;1747;48.884;9.160;2022-10-04T03:34:18;6.07;;;3.80;;
3465;SDS011;1747;48.884;9.160;2022-10-04T03:36:48;4.30;;;3.17;;
3465;SDS011;1747;48.884;9.160;2022-10-04T03:39:18;6.20;;;4.00;;
3465;SDS011;1747;48.884;9.160;2022-10-04T03:41:52;5.07;;;3.20;;
3465;SDS011;1747;48.884;9.160;2022-10-04T03:44:21;5.78;;;3.40;;
3465;SDS011;1747;48.884;9.160;2022-10-04T03:46:50;4.60;;;3.60;;
3465;SDS011;1747;48.884;9.160;2022-10-04T03:49:22;4.65;;;3.00;;
3465;SDS011;1747;48.884;9.160;2022-10-04T03:51:55;5.32;;;3.53;;
3465;SDS011;1747;48.884;9.160;2022-10-04T03:54:23;4.90;;;3.60;;
3465;SDS011;1747;48.884;9.160;2022-10-04T03:56:52;7.30;;;4.35;;
3465;SDS011;1747;48.884;9.160;2022-10-04T03:59:19;6.93;;;3.92;;
3465;SDS011;1747;48.884;9.160;2022-10-04T04:01:54;5.45;;;3.60;;
3465;SDS011;1747;48.884;9.160;2022-10-04T04:04:29;4.68;;;3.05;;
3465;SDS011;1747;48.884;9.160;2022-10-04T04:07:06;5.68;;;3.45;;
3465;SDS011;1747;48.884;9.160;2022-10-04T04:09:39;5.53;;;3.80;;
3465;SDS011;1747;48.884;9.160;2022-10-04T04:12:10;6.32;;;4.43;;
3465;SDS011;1747;48.884;9.160;2022-10-04T04:14:42;7.07;;;4.05;;
3465;SDS011;1747;48.884;9.160;2022-10-04T04:17:27;7.20;;;4.68;;
3465;SDS011;1747;48.884;9.160;2022-10-04T04:19:58;9.43;;;4.82;;
3465;SDS011;1747;48.884;9.160;2022-10-04T04:22:27;5.53;;;4.07;;
3465;SDS011;1747;48.884;9.160;2022-10-04T04:24:57;9.63;;;5.18;;
3465;SDS011;1747;48.884;9.160;2022-10-04T04:27:25;6.93;;;4.57;;
3465;SDS011;1747;48.884;9.160;2022-10-04T04:29:54;6.72;;;4.45;;
3465;SDS011;1747;48.884;9.160;2022-10-04T04:32:28;7.13;;;4.95;;
3465;SDS011;1747;48.884;9.160;2022-10-04T04:35:00;8.65;;;4.85;;
3465;SDS011;1747;48.884;9.160;2022-10-04T04:37:31;6.78;;;5.10;;
3465;SDS011;1747;48.884;9.160;2022-10-04T04:40:10;8.15;;;5.10;;
3465;SDS011;1747;48.884;9.160;2022-10-04T04:42:44;8.32;;;4.50;;
3465;SDS011;1747;48.884;9.160;2022-10-04T04:45:14;6.80;;;4.40;;
3465;SDS011;1747;48.884;9.160;2022-10-04T04:47:46;7.88;;;4.75;;
3465;SDS011;1747;48.884;9.160;2022-10-04T04:50:15;6.85;;;4.55;;
3465;SDS011;1747;48.884;9.160;2022-10-04T04:52:45;7.18;;;4.75;;
3465;SDS011;1747;48.884;9.160;2022-10-04T04:55:15;7.20;;;4.63;;
3465;SDS011;1747;48.884;9.160;2022-10-04T04:57:44;9.13;;;4.47;;
3465;SDS011;1747;48.884;9.160;2022-10-04T05:00:16;12.52;;;4.53;;
3465;SDS011;1747;48.884;9.160;2022-10-04T05:02:53;5.65;;;3.58;;
3465;SDS011;1747;48.884;9.160;2022-10-04T05:05:22;8.27;;;4.25;;
3465;SDS011;1747;48.884;9.160;2022-10-04T05:08:02;7.22;;;4.22;;
3465;SDS011;1747;48.884;9.160;2022-10-04T05:10:34;7.90;;;4.43;;
3465;SDS011;1747;48.884;9.160;2022-10-04T05:13:01;5.22;;;4.03;;
3465;SDS011;1747;48.884;9.160;2022-10-04T05:15:32;6.85;;;4.63;;
3465;SDS011;1747;48.884;9.160;2022-10-04T05:18:11;6.50;;;4.18;;
3465;SDS011;1747;48.884;9.160;2022-10-04T05:20:42;6.30;;;4.22;;
3465;SDS011;1747;48.884;9.160;2022-10-04T05:23:15;7.55;;;4.30;;
3465;SDS011;1747;48.884;9.160;2022-10-04T05:25:42;6.10;;;4.28;;
3465;SDS011;1747;48.884;9.160;2022-10-04T05:28:09;6.97;;;4.05;;
3465;SDS011;1747;48.884;9.160;2022-10-04T05:30:40;8.38;;;4.32;;
3465;SDS011;1747;48.884;9.160;2022-10-04T05:33:17;7.80;;;4.65;;
3465;SDS011;1747;48.884;9.160;2022-10-04T05:35:54;6.43;;;3.88;;
3465;SDS011;1747;48.884;9.160;2022-10-04T05:38:38;8.38;;;4.55;;
3465;SDS011;1747;48.884;9.160;2022-10-04T05:41:12;11.75;;;4.15;;
3465;SDS011;1747;48.884;9.160;2022-10-04T05:43:46;15.05;;;5.30;;
3465;SDS011;1747;48.884;9.160;2022-10-04T05:46:16;6.43;;;4.43;;
3465;SDS011;1747;48.884;9.160;2022-10-04T05:48:50;7.32;;;4.65;;
3465;SDS011;1747;48.884;9.160;2022-10-04T05:51:20;6.47;;;4.57;;
3465;SDS011;1747;48.884;9.160;2022-10-04T05:53:49;6.40;;;4.35;;
3465;SDS011;1747;48.884;9.160;2022-10-04T05:59:15;7.75;;;4.53;;
3465;SDS011;1747;48.884;9.160;2022-10-04T06:01:52;8.10;;;5.35;;
3465;SDS011;1747;48.884;9.160;2022-10-04T06:04:33;9.38;;;4.55;;
3465;SDS011;1747;48.884;9.160;2022-10-04T06:07:13;7.30;;;4.38;;
3465;SDS011;1747;48.884;9.160;2022-10-04T06:09:53;7.35;;;4.30;;
3465;SDS011;1747;48.884;9.160;2022-10-04T06:12:28;6.47;;;4.50;;
3465;SDS011;1747;48.884;9.160;2022-10-04T06:15:15;7.15;;;4.75;;
3465;SDS011;1747;48.884;9.160;2022-10-04T06:18:15;8.27;;;4.88;;
3465;SDS011;1747;48.884;9.160;2022-10-04T06:23:55;10.07;;;4.57;;
3465;SDS011;1747;48.884;9.160;2022-10-04T06:26:26;10.90;;;4.80;;
3465;SDS011;1747;48.884;9.160;2022-10-04T06:28:58;10.05;;;4.78;;
3465;SDS011;1747;48.884;9.160;2022-10-04T06:37:39;8.32;;;5.25;;
3465;SDS011;1747;48.884;9.160;2022-10-04T06:43:30;8.98;;;5.35;;
3465;SDS011;1747;48.884;9.160;2022-10-04T06:46:09;8.07;;;5.15;;
3465;SDS011;1747;48.884;9.160;2022-10-04T06:51:54;9.50;;;5.45;;
3465;SDS011;1747;48.884;9.160;2022-10-04T06:54:38;9.25;;;5.10;;
3465;SDS011;1747;48.884;9.160;2022-10-04T06:57:27;14.60;;;5.68;;
3465;SDS011;1747;48.884;9.160;2022-10-04T07:00:10;10.07;;;5.60;;
3465;SDS011;1747;48.884;9.160;2022-10-04T07:02:49;8.40;;;4.78;;
3465;SDS011;1747;48.884;9.160;2022-10-04T07:05:22;9.90;;;5.35;;
3465;SDS011;1747;48.884;9.160;2022-10-04T07:08:01;7.25;;;5.00;;
3465;SDS011;1747;48.884;9.160;2022-10-04T07:10:38;10.50;;;5.78;;
3465;SDS011;1747;48.884;9.160;2022-10-04T07:13:21;8.32;;;5.05;;
3465;SDS011;1747;48.884;9.160;2022-10-04T07:15:58;9.65;;;5.65;;
3465;SDS011;1747;48.884;9.160;2022-10-04T07:18:29;7.93;;;5.38;;
3465;SDS011;1747;48.884;9.160;2022-10-04T07:21:01;10.20;;;6.22;;
3465;SDS011;1747;48.884;9.160;2022-10-04T07:23:33;12.88;;;6.20;;
3465;SDS011;1747;48.884;9.160;2022-10-04T07:26:06;9.65;;;5.57;;
3465;SDS011;1747;48.884;9.160;2022-10-04T07:28:44;9.10;;;5.38;;
3465;SDS011;1747;48.884;9.160;2022-10-04T07:31:31;7.40;;;5.05;;
3465;SDS011;1747;48.884;9.160;2022-10-04T07:34:02;11.48;;;4.95;;
3465;SDS011;1747;48.884;9.160;2022-10-04T07:36:37;9.05;;;5.22;;
3465;SDS011;1747;48.884;9.160;2022-10-04T07:39:10;9.18;;;4.57;;
3465;SDS011;1747;48.884;9.160;2022-10-04T07:41:44;7.40;;;4.97;;
3465;SDS011;1747;48.884;9.160;2022-10-04T07:44:16;13.15;;;5.38;;
3465;SDS011;1747;48.884;9.160;2022-10-04T07:46:52;7.30;;;5.15;;
3465;SDS011;1747;48.884;9.160;2022-10-04T07:49:23;7.40;;;5.03;;
3465;SDS011;1747;48.884;9.160;2022-10-04T07:54:50;12.68;;;5.03;;
3465;SDS011;1747;48.884;9.160;2022-10-04T07:57:27;10.13;;;5.40;;
3465;SDS011;1747;48.884;9.160;2022-10-04T08:00:00;8.70;;;5.07;;
3465;SDS011;1747;48.884;9.160;2022-10-04T08:02:34;6.72;;;5.03;;
3465;SDS011;1747;48.884;9.160;2022-10-04T08:05:14;6.40;;;4.32;;
3465;SDS011;1747;48.884;9.160;2022-10-04T08:07:49;8.38;;;4.97;;
3465;SDS011;1747;48.884;9.160;2022-10-04T08:10:31;7.82;;;4.63;;
3465;SDS011;1747;48.884;9.160;2022-10-04T08:13:09;13.40;;;5.50;;
3465;SDS011;1747;48.884;9.160;2022-10-04T08:15:47;7.40;;;4.90;;
3465;SDS011;1747;48.884;9.160;2022-10-04T08:18:21;9.65;;;4.68;;
3465;SDS011;1747;48.884;9.160;2022-10-04T08:21:02;9.70;;;4.65;;
3465;SDS011;1747;48.884;9.160;2022-10-04T08:23:40;8.70;;;4.38;;
3465;SDS011;1747;48.884;9.160;2022-10-04T08:32:26;8.82;;;4.40;;
3465;SDS011;1747;48.884;9.160;2022-10-04T08:35:10;7.10;;;4.70;;
3465;SDS011;1747;48.884;9.160;2022-10-04T08:37:50;5.85;;;4.18;;
3465;SDS011;1747;48.884;9.160;2022-10-04T08:43:41;7.95;;;4.22;;
3465;SDS011;1747;48.884;9.160;2022-10-04T08:49:27;6.40;;;4.35;;
3465;SDS011;1747;48.884;9.160;2022-10-04T08:52:28;7.70;;;4.32;;
3465;SDS011;1747;48.884;9.160;2022-10-04T08:55:28;7.53;;;4.35;;
3465;SDS011;1747;48.884;9.160;2022-10-04T08:58:21;10.00;;;5.60;;
3465;SDS011;1747;48.884;9.160;2022-10-04T09:01:16;8.88;;;4.10;;
3465;SDS011;1747;48.884;9.160;2022-10-04T09:04:05;7.15;;;4.32;;
3465;SDS011;1747;48.884;9.160;2022-10-04T09:07:08;6.03;;;3.80;;
3465;SDS011;1747;48.884;9.160;2022-10-04T09:10:05;6.82;;;4.40;;
3465;SDS011;1747;48.884;9.160;2022-10-04T09:16:15;7.78;;;4.28;;
3465;SDS011;1747;48.884;9.160;2022-10-04T09:18:56;5.78;;;4.15;;
3465;SDS011;1747;48.884;9.160;2022-10-04T09:21:48;6.00;;;3.95;;
3465;SDS011;1747;48.884;9.160;2022-10-04T09:24:31;7.03;;;4.47;;
3465;SDS011;1747;48.884;9.160;2022-10-04T09:27:29;7.95;;;4.15;;
3465;SDS011;1747;48.884;9.160;2022-10-04T09:30:11;7.10;;;4.07;;
3465;SDS011;1747;48.884;9.160;2022-10-04T09:32:57;9.27;;;4.45;;
3465;SDS011;1747;48.884;9.160;2022-10-04T09:35:49;10.43;;;3.47;;
3465;SDS011;1747;48.884;9.160;2022-10-04T09:41:49;6.10;;;3.97;;
3465;SDS011;1747;48.884;9.160;2022-10-04T09:47:27;7.68;;;3.78;;
3465;SDS011;1747;48.884;9.160;2022-10-04T09:53:14;6.22;;;3.70;;
3465;SDS011;1747;48.884;9.160;2022-10-04T09:56:02;10.07;;;3.90;;
3465;SDS011;1747;48.884;9.160;2022-10-04T09:58:51;6.70;;;3.83;;
3465;SDS011;1747;48.884;9.160;2022-10-04T10:01:28;10.07;;;4.47;;
3465;SDS011;1747;48.884;9.160;2022-10-04T10:04:06;10.48;;;4.40;;
3465;SDS011;1747;48.884;9.160;2022-10-04T10:06:50;8.00;;;3.70;;
3465;SDS011;1747;48.884;9.160;2022-10-04T10:09:31;6.57;;;3.55;;
3465;SDS011;1747;48.884;9.160;2022-10-04T10:12:31;5.90;;;3.92;;
3465;SDS011;1747;48.884;9.160;2022-10-04T10:15:29;5.72;;;3.28;;
3465;SDS011;1747;48.884;9.160;2022-10-04T10:18:15;8.68;;;3.65;;
3465;SDS011;1747;48.884;9.160;2022-10-04T10:24:13;8.38;;;3.22;;
3465;SDS011;1747;48.884;9.160;2022-10-04T10:27:10;9.57;;;3.22;;
3465;SDS011;1747;48.884;9.160;2022-10-04T10:32:53;9.30;;;3.53;;
3465;SDS011;1747;48.884;9.160;2022-10-04T10:35:40;6.57;;;3.05;;
3465;SDS011;1747;48.884;9.160;2022-10-04T10:38:22;7.38;;;2.90;;
3465;SDS011;1747;48.884;9.160;2022-10-04T10:41:13;4.43;;;2.75;;
3465;SDS011;1747;48.884;9.160;2022-10-04T10:43:59;6.45;;;2.92;;
3465;SDS011;1747;48.884;9.160;2022-10-04T10:46:48;6.85;;;2.88;;
3465;SDS011;1747;48.884;9.160;2022-10-04T10:49:30;5.80;;;3.15;;
3465;SDS011;1747;48.884;9.160;2022-10-04T10:52:30;5.50;;;3.20;;
3465;SDS011;1747;48.884;9.160;2022-10-04T10:55:28;7.55;;;3.17;;
3465;SDS011;1747;48.884;9.160;2022-10-04T11:01:15;4.82;;;2.65;;
3465;SDS011;1747;48.884;9.160;2022-10-04T11:04:12;4.13;;;2.95;;
3465;SDS011;1747;48.884;9.160;2022-10-04T11:13:18;3.25;;;2.40;;
3465;SDS011;1747;48.884;9.160;2022-10-04T11:16:29;9.75;;;2.60;;
3465;SDS011;1747;48.884;9.160;2022-10-04T11:19:29;6.30;;;2.97;;
3465;SDS011;1747;48.884;9.160;2022-10-04T11:28:44;3.30;;;2.15;;
3465;SDS011;1747;48.884;9.160;2022-10-04T11:31:25;4.13;;;2.22;;
3465;SDS011;1747;48.884;9.160;2022-10-04T11:37:08;5.65;;;2.28;;
3465;SDS011;1747;48.884;9.160;2022-10-04T11:39:47;3.13;;;2.33;;
3465;SDS011;1747;48.884;9.160;2022-10-04T11:42:32;4.57;;;2.42;;
3465;SDS011;1747;48.884;9.160;2022-10-04T11:45:19;2.80;;;2.10;;
3465;SDS011;1747;48.884;9.160;2022-10-04T11:48:01;3.92;;;2.25;;
3465;SDS011;1747;48.884;9.160;2022-10-04T11:50:48;4.30;;;2.75;;
3465;SDS011;1747;48.884;9.160;2022-10-04T11:56:29;4.90;;;2.30;;
3465;SDS011;1747;48.884;9.160;2022-10-04T11:59:20;3.45;;;2.53;;
3465;SDS011;1747;48.884;9.160;2022-10-04T12:05:19;3.08;;;2.15;;
3465;SDS011;1747;48.884;9.160;2022-10-04T12:08:02;4.57;;;2.28;;
3465;SDS011;1747;48.884;9.160;2022-10-04T12:10:44;5.20;;;2.70;;
3465;SDS011;1747;48.884;9.160;2022-10-04T12:13:38;3.95;;;2.17;;
3465;SDS011;1747;48.884;9.160;2022-10-04T12:16:30;5.35;;;2.25;;
3465;SDS011;1747;48.884;9.160;2022-10-04T12:19:38;3.75;;;2.17;;
3465;SDS011;1747;48.884;9.160;2022-10-04T12:22:43;5.10;;;2.60;;
3465;SDS011;1747;48.884;9.160;2022-10-04T12:28:42;4.43;;;2.70;;
3465;SDS011;1747;48.884;9.160;2022-10-04T12:31:34;4.43;;;2.28;;
3465;SDS011;1747;48.884;9.160;2022-10-04T12:34:10;4.13;;;2.00;;
3465;SDS011;1747;48.884;9.160;2022-10-04T12:42:52;2.75;;;2.22;;
3465;SDS011;1747;48.884;9.160;2022-10-04T12:45:27;3.47;;;2.38;;
3465;SDS011;1747;48.884;9.160;2022-10-04T12:48:16;5.85;;;2.40;;
3465;SDS011;1747;48.884;9.160;2022-10-04T12:50:55;3.10;;;2.25;;
3465;SDS011;1747;48.884;9.160;2022-10-04T12:53:37;4.40;;;2.20;;
3465;SDS011;1747;48.884;9.160;2022-10-04T12:56:13;7.40;;;2.53;;
3465;SDS011;1747;48.884;9.160;2022-10-04T12:59:00;2.63;;;2.03;;
3465;SDS011;1747;48.884;9.160;2022-10-04T13:01:43;4.68;;;2.15;;
3465;SDS011;1747;48.884;9.160;2022-10-04T13:04:21;4.00;;;2.53;;
3465;SDS011;1747;48.884;9.160;2022-10-04T13:09:46;3.50;;;2.28;;
3465;SDS011;1747;48.884;9.160;2022-10-04T13:12:26;3.60;;;2.20;;
3465;SDS011;1747;48.884;9.160;2022-10-04T13:15:16;2.83;;;2.00;;
3465;SDS011;1747;48.884;9.160;2022-10-04T13:17:50;3.03;;;1.75;;
3465;SDS011;1747;48.884;9.160;2022-10-04T13:20:33;2.50;;;1.70;;
3465;SDS011;1747;48.884;9.160;2022-10-04T13:23:12;4.10;;;2.00;;
3465;SDS011;1747;48.884;9.160;2022-10-04T13:25:53;3.13;;;2.03;;
3465;SDS011;1747;48.884;9.160;2022-10-04T13:28:33;4.55;;;1.88;;
3465;SDS011;1747;48.884;9.160;2022-10-04T13:31:09;2.75;;;1.55;;
3465;SDS011;1747;48.884;9.160;2022-10-04T13:33:49;2.80;;;2.08;;
3465;SDS011;1747;48.884;9.160;2022-10-04T13:36:23;3.75;;;2.30;;
3465;SDS011;1747;48.884;9.160;2022-10-04T13:39:11;3.90;;;2.15;;
3465;SDS011;1747;48.884;9.160;2022-10-04T13:42:06;4.07;;;2.10;;
3465;SDS011;1747;48.884;9.160;2022-10-04T13:44:50;5.70;;;1.95;;
3465;SDS011;1747;48.884;9.160;2022-10-04T13:47:55;3.03;;;1.95;;
3465;SDS011;1747;48.884;9.160;2022-10-04T13:50:42;3.38;;;1.95;;
3465;SDS011;1747;48.884;9.160;2022-10-04T13:53:22;3.33;;;1.83;;
3465;SDS011;1747;48.884;9.160;2022-10-04T13:56:18;2.63;;;1.67;;
3465;SDS011;1747;48.884;9.160;2022-10-04T13:59:06;6.15;;;2.10;;
3465;SDS011;1747;48.884;9.160;2022-10-04T14:01:45;1.95;;;1.50;;
3465;SDS011;1747;48.884;9.160;2022-10-04T14:07:45;2.20;;;1.40;;
3465;SDS011;1747;48.884;9.160;2022-10-04T14:10:32;5.32;;;1.38;;
3465;SDS011;1747;48.884;9.160;2022-10-04T14:19:37;3.53;;;1.60;;
3465;SDS011;1747;48.884;9.160;2022-10-04T14:22:27;3.00;;;1.40;;
3465;SDS011;1747;48.884;9.160;2022-10-04T14:28:25;3.13;;;1.45;;
3465;SDS011;1747;48.884;9.160;2022-10-04T14:31:25;5.28;;;1.75;;
3465;SDS011;1747;48.884;9.160;2022-10-04T14:34:22;2.60;;;1.50;;
3465;SDS011;1747;48.884;9.160;2022-10-04T14:37:19;1.35;;;1.25;;
3465;SDS011;1747;48.884;9.160;2022-10-04T14:40:17;1.40;;;1.02;;
3465;SDS011;1747;48.884;9.160;2022-10-04T14:43:10;2.33;;;1.50;;
3465;SDS011;1747;48.884;9.160;2022-10-04T14:45:54;3.35;;;1.60;;
3465;SDS011;1747;48.884;9.160;2022-10-04T14:48:37;5.22;;;1.90;;
3465;SDS011;1747;48.884;9.160;2022-10-04T14:54:03;2.85;;;1.90;;
3465;SDS011;1747;48.884;9.160;2022-10-04T14:56:53;3.78;;;1.80;;
3465;SDS011;1747;48.884;9.160;2022-10-04T14:59:28;1.85;;;1.40;;
3465;SDS011;1747;48.884;9.160;2022-10-04T15:05:28;2.40;;;1.63;;
3465;SDS011;1747;48.884;9.160;2022-10-04T15:11:06;3.33;;;1.73;;
3465;SDS011;1747;48.884;9.160;2022-10-04T15:13:36;3.38;;;1.90;;
3465;SDS011;1747;48.884;9.160;2022-10-04T15:16:15;2.83;;;1.80;;
3465;SDS011;1747;48.884;9.160;2022-10-04T15:18:51;3.17;;;1.75;;
3465;SDS011;1747;48.884;9.160;2022-10-04T15:24:25;4.22;;;1.80;;
3465;SDS011;1747;48.884;9.160;2022-10-04T15:29:53;2.75;;;1.70;;
3465;SDS011;1747;48.884;9.160;2022-10-04T15:32:28;3.35;;;1.75;;
3465;SDS011;1747;48.884;9.160;2022-10-04T15:35:04;4.65;;;1.50;;
3465;SDS011;1747;48.884;9.160;2022-10-04T15:37:46;2.83;;;1.42;;
3465;SDS011;1747;48.884;9.160;2022-10-04T15:40:23;3.25;;;2.00;;
3465;SDS011;1747;48.884;9.160;2022-10-04T15:42:58;3.13;;;1.65;;
3465;SDS011;1747;48.884;9.160;2022-10-04T15:46:09;4.25;;;1.98;;
3465;SDS011;1747;48.884;9.160;2022-10-04T15:51:59;3.70;;;1.90;;
3465;SDS011;1747;48.884;9.160;2022-10-04T15:57:37;6.35;;;2.20;;
3465;SDS011;1747;48.884;9.160;2022-10-04T16:00:19;3.78;;;1.80;;
3465;SDS011;1747;48.884;9.160;2022-10-04T16:02:56;2.53;;;1.92;;
3465;SDS011;1747;48.884;9.160;2022-10-04T16:05:36;1.67;;;1.58;;
3465;SDS011;1747;48.884;9.160;2022-10-04T16:08:15;3.45;;;1.85;;
3465;SDS011;1747;48.884;9.160;2022-10-04T16:10:55;5.38;;;2.03;;
3465;SDS011;1747;48.884;9.160;2022-10-04T16:13:40;5.80;;;1.52;;
3465;SDS011;1747;48.884;9.160;2022-10-04T16:16:28;1.95;;;1.35;;
3465;SDS011;1747;48.884;9.160;2022-10-04T16:19:18;2.90;;;1.60;;
3465;SDS011;1747;48.884;9.160;2022-10-04T16:22:06;3.45;;;1.80;;
3465;SDS011;1747;48.884;9.160;2022-10-04T16:24:39;2.05;;;1.70;;
3465;SDS011;1747;48.884;9.160;2022-10-04T16:30:11;3.47;;;1.70;;
3465;SDS011;1747;48.884;9.160;2022-10-04T16:32:44;2.17;;;1.60;;
3465;SDS011;1747;48.884;9.160;2022-10-04T16:35:26;4.15;;;1.80;;
3465;SDS011;1747;48.884;9.160;2022-10-04T16:37:57;2.78;;;1.40;;
3465;SDS011;1747;48.884;9.160;2022-10-04T16:40:32;1.65;;;1.40;;
3465;SDS011;1747;48.884;9.160;2022-10-04T16:43:03;2.33;;;1.70;;
3465;SDS011;1747;48.884;9.160;2022-10-04T16:45:42;3.50;;;1.70;;
3465;SDS011;1747;48.884;9.160;2022-10-04T16:48:29;3.45;;;1.77;;
3465;SDS011;1747;48.884;9.160;2022-10-04T16:54:44;2.58;;;1.70;;
3465;SDS011;1747;48.884;9.160;2022-10-04T16:57:25;2.55;;;1.63;;
3465;SDS011;1747;48.884;9.160;2022-10-04T16:59:53;5.10;;;1.70;;
3465;SDS011;1747;48.884;9.160;2022-10-04T17:02:30;2.25;;;1.90;;
3465;SDS011;1747;48.884;9.160;2022-10-04T17:05:16;2.38;;;1.58;;
3465;SDS011;1747;48.884;9.160;2022-10-04T17:11:06;5.80;;;1.80;;
3465;SDS011;1747;48.884;9.160;2022-10-04T17:13:45;1.80;;;1.50;;
3465;SDS011;1747;48.884;9.160;2022-10-04T17:16:19;3.53;;;1.60;;
3465;SDS011;1747;48.884;9.160;2022-10-04T17:19:07;2.53;;;1.70;;
3465;SDS011;1747;48.884;9.160;2022-10-04T17:21:43;3.90;;;1.77;;
3465;SDS011;1747;48.884;9.160;2022-10-04T17:24:16;2.30;;;1.70;;
3465;SDS011;1747;48.884;9.160;2022-10-04T17:26:54;4.47;;;2.08;;
3465;SDS011;1747;48.884;9.160;2022-10-04T17:29:35;5.00;;;2.15;;
3465;SDS011;1747;48.884;9.160;2022-10-04T17:32:12;3.30;;;1.65;;
3465;SDS011;1747;48.884;9.160;2022-10-04T17:34:51;6.28;;;2.53;;
3465;SDS011;1747;48.884;9.160;2022-10-04T17:37:29;4.10;;;1.95;;
3465;SDS011;1747;48.884;9.160;2022-10-04T17:40:12;3.50;;;2.20;;
3465;SDS011;1747;48.884;9.160;2022-10-04T17:42:57;3.17;;;2.38;;
3465;SDS011;1747;48.884;9.160;2022-10-04T17:45:41;2.55;;;1.95;;
3465;SDS011;1747;48.884;9.160;2022-10-04T17:48:16;3.65;;;2.25;;
3465;SDS011;1747;48.884;9.160;2022-10-04T17:51:04;3.35;;;2.10;;
3465;SDS011;1747;48.884;9.160;2022-10-04T17:53:56;5.20;;;2.28;;
3465;SDS011;1747;48.884;9.160;2022-10-04T17:56:46;3.90;;;2.03;;
3465;SDS011;1747;48.884;9.160;2022-10-04T17:59:19;4.47;;;2.20;;
3465;SDS011;1747;48.884;9.160;2022-10-04T18:01:51;4.88;;;2.35;;
3465;SDS011;1747;48.884;9.160;2022-10-04T18:04:27;3.10;;;2.25;;
3465;SDS011;1747;48.884;9.160;2022-10-04T18:07:00;4.68;;;2.30;;
3465;SDS011;1747;48.884;9.160;2022-10-04T18:09:40;5.72;;;2.42;;
3465;SDS011;1747;48.884;9.160;2022-10-04T18:12:11;3.00;;;2.33;;
3465;SDS011;1747;48.884;9.160;2022-10-04T18:14:54;5.05;;;2.28;;
3465;SDS011;1747;48.884;9.160;2022-10-04T18:17:28;10.15;;;5.60;;
3465;SDS011;1747;48.884;9.160;2022-10-04T18:20:00;5.47;;;2.70;;
3465;SDS011;1747;48.884;9.160;2022-10-04T18:22:47;5.30;;;2.67;;
3465;SDS011;1747;48.884;9.160;2022-10-04T18:25:16;6.43;;;2.92;;
3465;SDS011;1747;48.884;9.160;2022-10-04T18:27:48;4.80;;;2.63;;
3465;SDS011;1747;48.884;9.160;2022-10-04T18:30:19;5.57;;;2.80;;
3465;SDS011;1747;48.884;9.160;2022-10-04T18:32:47;5.57;;;3.10;;
3465;SDS011;1747;48.884;9.160;2022-10-04T18:35:24;3.67;;;3.03;;
3465;SDS011;1747;48.884;9.160;2022-10-04T18:37:53;4.90;;;2.75;;
3465;SDS011;1747;48.884;9.160;2022-10-04T18:40:21;6.00;;;2.63;;
3465;SDS011;1747;48.884;9.160;2022-10-04T18:42:51;5.57;;;3.72;;
3465;SDS011;1747;48.884;9.160;2022-10-04T18:45:22;3.67;;;2.72;;
3465;SDS011;1747;48.884;9.160;2022-10-04T18:47:51;3.30;;;2.70;;